Time;durP1;ratioP1;P1;durP2;ratioP2;P2;SDS_P1;SDS_P2;PMS_P1;PMS_P2;Temp;Humidity;BMP_temperature;BMP_pressure;BME280_temperature;BME280_humidity;BME280_pressure;Samples;Min_cycle;Max_cycle;Signal;HPM_P1;HPM_P2
2022/04/07 00:02:12;;;;;;;6.55;5.80;;;;;;;;;;4990398;28;20491;-78
2022/04/07 00:04:39;;;;;;;5.90;4.95;;;;;;;;;;4994508;28;20089;-76
2022/04/07 00:07:08;;;;;;;5.05;4.50;;;;;;;;;;4964561;28;20458;-79
2022/04/07 00:09:36;;;;;;;4.88;4.30;;;;;;;;;;4978456;28;20485;-77
2022/04/07 00:12:04;;;;;;;6.45;5.57;;;;;;;;;;4977576;28;20069;-78
2022/04/07 00:14:31;;;;;;;6.28;5.70;;;;;;;;;;4987847;28;20039;-77
2022/04/07 00:17:00;;;;;;;5.00;4.60;;;;;;;;;;4964995;28;20051;-77
2022/04/07 00:19:28;;;;;;;5.90;5.30;;;;;;;;;;4989113;28;20046;-80
2022/04/07 00:21:57;;;;;;;6.18;5.47;;;;;;;;;;4961435;28;20085;-76
2022/04/07 00:24:27;;;;;;;5.97;5.35;;;;;;;;;;5002901;28;20046;-78
2022/04/07 00:27:00;;;;;;;6.45;5.30;;;;;;;;;;4986372;28;20512;-80
2022/04/07 00:29:28;;;;;;;6.28;5.20;;;;;;;;;;4960463;28;20050;-80
2022/04/07 00:31:57;;;;;;;4.53;4.13;;;;;;;;;;4992959;28;20042;-78
2022/04/07 00:34:25;;;;;;;5.22;4.72;;;;;;;;;;4996597;28;20384;-79
2022/04/07 00:36:55;;;;;;;5.53;5.10;;;;;;;;;;4979109;28;20109;-77
2022/04/07 00:39:22;;;;;;;5.85;4.47;;;;;;;;;;4995814;28;20072;-79
2022/04/07 00:41:50;;;;;;;5.80;5.30;;;;;;;;;;5054107;23;20112;-72
2022/04/07 00:44:21;;;;;;;6.10;5.50;;;;;;;;;;5009041;28;20037;-71
2022/04/07 00:46:49;;;;;;;5.70;5.30;;;;;;;;;;5031549;28;20643;-72
2022/04/07 00:49:16;;;;;;;5.85;5.28;;;;;;;;;;4997419;28;20243;-70
2022/04/07 00:51:44;;;;;;;5.57;5.07;;;;;;;;;;5005019;28;20053;-72
2022/04/07 00:54:13;;;;;;;6.38;5.65;;;;;;;;;;5011255;28;20492;-72
2022/04/07 00:56:41;;;;;;;5.93;5.43;;;;;;;;;;5009314;28;20132;-71
2022/04/07 00:59:13;;;;;;;7.35;6.07;;;;;;;;;;5028235;28;20044;-73
2022/04/07 01:01:40;;;;;;;6.20;5.60;;;;;;;;;;5025343;28;20386;-70
2022/04/07 01:04:08;;;;;;;5.50;4.97;;;;;;;;;;5028154;28;20132;-70
2022/04/07 01:06:35;;;;;;;6.72;5.60;;;;;;;;;;5009986;28;20343;-70
2022/04/07 01:09:03;;;;;;;7.05;6.45;;;;;;;;;;5018726;28;20045;-71
2022/04/07 01:11:32;;;;;;;10.23;5.88;;;;;;;;;;5021500;28;20048;-70
2022/04/07 01:14:00;;;;;;;6.70;5.95;;;;;;;;;;5012135;28;20050;-71
2022/04/07 01:16:28;;;;;;;9.55;6.05;;;;;;;;;;5000387;28;20096;-72
2022/04/07 01:18:57;;;;;;;7.07;6.07;;;;;;;;;;5020757;28;20065;-71
2022/04/07 01:21:25;;;;;;;7.20;6.60;;;;;;;;;;5018099;28;20116;-73
2022/04/07 01:24:11;;;;;;;8.30;7.50;;;;;;;;;;4990236;28;20061;-72
2022/04/07 01:26:40;;;;;;;8.02;6.93;;;;;;;;;;5006538;28;20393;-72
2022/04/07 01:29:08;;;;;;;6.45;5.93;;;;;;;;;;5008125;28;20052;-71
2022/04/07 01:31:36;;;;;;;7.57;6.80;;;;;;;;;;5028781;28;20037;-73
2022/04/07 01:34:05;;;;;;;7.50;6.63;;;;;;;;;;5022788;28;20045;-71
2022/04/07 01:36:34;;;;;;;6.80;6.10;;;;;;;;;;5024278;28;20038;-74
2022/04/07 01:39:03;;;;;;;6.22;5.63;;;;;;;;;;5009985;28;20153;-74
2022/04/07 01:41:30;;;;;;;7.82;6.43;;;;;;;;;;5027069;28;20497;-74
2022/04/07 01:43:58;;;;;;;9.77;7.05;;;;;;;;;;5008686;28;20038;-71
2022/04/07 01:46:26;;;;;;;6.63;5.93;;;;;;;;;;5023032;28;20057;-74
2022/04/07 01:48:54;;;;;;;6.68;6.18;;;;;;;;;;5016030;28;20050;-74
2022/04/07 01:51:24;;;;;;;7.13;6.32;;;;;;;;;;5018317;28;20132;-74
2022/04/07 01:53:51;;;;;;;7.80;7.10;;;;;;;;;;5007585;28;20103;-74
2022/04/07 01:56:20;;;;;;;9.52;7.00;;;;;;;;;;5023901;28;20527;-71
2022/04/07 01:58:48;;;;;;;9.00;7.60;;;;;;;;;;5007046;28;20149;-71
2022/04/07 02:01:16;;;;;;;7.93;7.13;;;;;;;;;;4998171;28;20042;-73
2022/04/07 02:03:45;;;;;;;7.72;7.03;;;;;;;;;;5008560;28;20053;-73
2022/04/07 02:06:14;;;;;;;9.65;7.72;;;;;;;;;;5021888;28;20107;-74
2022/04/07 02:08:41;;;;;;;7.07;6.43;;;;;;;;;;4996378;28;20131;-72
2022/04/07 02:11:10;;;;;;;8.13;7.40;;;;;;;;;;5029381;28;20124;-74
2022/04/07 02:13:39;;;;;;;8.18;7.47;;;;;;;;;;5008545;28;20053;-74
2022/04/07 02:16:07;;;;;;;8.00;7.30;;;;;;;;;;5005492;28;20042;-73
2022/04/07 02:18:35;;;;;;;6.43;5.88;;;;;;;;;;5016748;28;20049;-74
2022/04/07 02:21:03;;;;;;;7.75;6.97;;;;;;;;;;5007926;28;20131;-74
2022/04/07 02:23:34;;;;;;;6.85;6.25;;;;;;;;;;5026693;28;20042;-74
2022/04/07 02:26:01;;;;;;;6.72;5.47;;;;;;;;;;4999137;28;20041;-74
2022/04/07 02:28:28;;;;;;;5.70;5.07;;;;;;;;;;5010361;28;20160;-72
2022/04/07 02:30:56;;;;;;;6.07;5.20;;;;;;;;;;5015767;28;20453;-74
2022/04/07 02:33:23;;;;;;;7.10;5.75;;;;;;;;;;5005872;28;20049;-74
2022/04/07 02:35:51;;;;;;;5.72;5.22;;;;;;;;;;4993997;28;20045;-71
2022/04/07 02:38:18;;;;;;;5.13;4.65;;;;;;;;;;5016215;28;20044;-74
2022/04/07 02:40:45;;;;;;;5.82;5.30;;;;;;;;;;5010228;28;20245;-74
2022/04/07 02:43:13;;;;;;;7.20;5.03;;;;;;;;;;4974208;28;20509;-74
2022/04/07 02:45:40;;;;;;;5.75;5.25;;;;;;;;;;5001416;28;20116;-74
2022/04/07 02:48:07;;;;;;;6.20;5.60;;;;;;;;;;5007720;28;20057;-72
2022/04/07 02:50:35;;;;;;;6.65;5.63;;;;;;;;;;5009640;28;20156;-74
2022/04/07 02:53:02;;;;;;;5.70;5.15;;;;;;;;;;4990400;28;20046;-72
2022/04/07 02:55:29;;;;;;;5.90;5.13;;;;;;;;;;4990588;28;20505;-74
2022/04/07 02:58:00;;;;;;;5.45;4.95;;;;;;;;;;5012437;28;20042;-74
2022/04/07 03:00:27;;;;;;;6.78;6.05;;;;;;;;;;5005964;28;20467;-74
2022/04/07 03:02:55;;;;;;;6.10;5.57;;;;;;;;;;4987186;28;20038;-74
2022/04/07 03:05:22;;;;;;;6.32;5.72;;;;;;;;;;5005842;28;20501;-71
2022/04/07 03:07:50;;;;;;;6.18;5.57;;;;;;;;;;5009749;28;20563;-74
2022/04/07 03:10:17;;;;;;;7.07;5.40;;;;;;;;;;5026007;28;20420;-73
2022/04/07 03:12:44;;;;;;;6.68;6.10;;;;;;;;;;5033866;28;20456;-74
2022/04/07 03:15:12;;;;;;;6.93;5.13;;;;;;;;;;5025299;28;20128;-74
2022/04/07 03:17:39;;;;;;;7.22;6.47;;;;;;;;;;5019955;28;20157;-72
2022/04/07 03:20:07;;;;;;;8.90;5.93;;;;;;;;;;5022031;28;20131;-74
2022/04/07 03:22:34;;;;;;;6.68;6.05;;;;;;;;;;5023368;28;20050;-74
2022/04/07 03:25:02;;;;;;;6.05;5.55;;;;;;;;;;5011806;28;20474;-71
2022/04/07 03:27:29;;;;;;;6.20;5.68;;;;;;;;;;4990197;28;20048;-74
2022/04/07 03:29:57;;;;;;;8.68;5.70;;;;;;;;;;5014758;28;20100;-74
2022/04/07 03:32:24;;;;;;;5.97;5.47;;;;;;;;;;5027774;28;20533;-73
2022/04/07 03:34:52;;;;;;;6.70;6.00;;;;;;;;;;5027216;28;20033;-74
2022/04/07 03:37:20;;;;;;;6.65;5.65;;;;;;;;;;5013907;28;20074;-74
2022/04/07 03:39:49;;;;;;;7.53;6.72;;;;;;;;;;5012575;28;20042;-74
2022/04/07 03:42:17;;;;;;;7.10;6.45;;;;;;;;;;5028916;28;20115;-71
2022/04/07 03:44:44;;;;;;;9.20;7.68;;;;;;;;;;4998508;28;20561;-72
2022/04/07 03:47:12;;;;;;;9.02;7.65;;;;;;;;;;5021129;28;20034;-74
2022/04/07 03:49:39;;;;;;;8.35;7.22;;;;;;;;;;5026773;28;20313;-74
2022/04/07 03:52:08;;;;;;;8.57;6.55;;;;;;;;;;5038372;28;20041;-74
2022/04/07 03:54:35;;;;;;;8.85;7.32;;;;;;;;;;5024590;28;20555;-72
2022/04/07 03:57:02;;;;;;;7.40;6.25;;;;;;;;;;5021561;28;20038;-73
2022/04/07 03:59:33;;;;;;;8.32;7.40;;;;;;;;;;5003812;28;20584;-72
2022/04/07 04:02:00;;;;;;;7.63;6.88;;;;;;;;;;5006343;28;20049;-71
2022/04/07 04:04:28;;;;;;;9.18;7.97;;;;;;;;;;5043890;28;20099;-72
2022/04/07 04:06:55;;;;;;;8.48;7.63;;;;;;;;;;5027995;28;20349;-73
2022/04/07 04:09:23;;;;;;;13.75;8.52;;;;;;;;;;5036856;28;20060;-74
2022/04/07 04:11:50;;;;;;;7.60;5.65;;;;;;;;;;5029181;28;20136;-73
2022/04/07 04:14:17;;;;;;;6.65;5.95;;;;;;;;;;5011733;28;20053;-74
2022/04/07 04:16:45;;;;;;;7.75;6.93;;;;;;;;;;5002410;28;20057;-74
2022/04/07 04:19:13;;;;;;;7.80;7.00;;;;;;;;;;5020226;28;20126;-72
2022/04/07 04:21:40;;;;;;;7.82;6.95;;;;;;;;;;5021502;28;20409;-73
2022/04/07 04:24:10;;;;;;;7.25;6.55;;;;;;;;;;5034775;28;20053;-72
2022/04/07 04:26:37;;;;;;;9.20;6.82;;;;;;;;;;4989092;28;20076;-73
2022/04/07 04:29:05;;;;;;;10.50;7.80;;;;;;;;;;5020692;28;20258;-74
2022/04/07 04:31:33;;;;;;;12.02;8.70;;;;;;;;;;5004842;28;20136;-72
2022/04/07 04:34:01;;;;;;;10.35;8.23;;;;;;;;;;5029222;28;20074;-74
2022/04/07 04:36:29;;;;;;;13.00;8.63;;;;;;;;;;5004450;28;20046;-73
2022/04/07 04:39:00;;;;;;;15.10;9.57;;;;;;;;;;4992071;28;20041;-75
2022/04/07 04:41:34;;;;;;;9.93;7.88;;;;;;;;;;5002767;28;20072;-74
2022/04/07 04:44:02;;;;;;;10.05;8.23;;;;;;;;;;4986360;28;20042;-74
2022/04/07 04:46:30;;;;;;;13.45;8.65;;;;;;;;;;5022855;28;20045;-76
2022/04/07 04:48:58;;;;;;;11.30;8.95;;;;;;;;;;5006503;28;20045;-71
2022/04/07 04:51:25;;;;;;;11.43;8.93;;;;;;;;;;5040967;28;20068;-75
2022/04/07 04:54:13;;;;;;;12.07;9.23;;;;;;;;;;5022153;28;20045;-75
2022/04/07 04:56:41;;;;;;;11.57;8.88;;;;;;;;;;5022953;28;20033;-74
2022/04/07 04:59:09;;;;;;;9.95;8.13;;;;;;;;;;5024751;28;20117;-72
2022/04/07 05:01:36;;;;;;;8.80;7.90;;;;;;;;;;4999808;28;20044;-75
2022/04/07 05:04:04;;;;;;;9.77;8.85;;;;;;;;;;5017747;28;20041;-73
2022/04/07 05:06:31;;;;;;;9.20;8.30;;;;;;;;;;5029562;28;20507;-75
2022/04/07 05:08:59;;;;;;;7.10;6.40;;;;;;;;;;5037312;28;20041;-74
2022/04/07 05:11:26;;;;;;;10.52;7.50;;;;;;;;;;5010197;28;20099;-73
2022/04/07 05:13:53;;;;;;;11.52;8.77;;;;;;;;;;5042976;28;20227;-75
2022/04/07 05:16:21;;;;;;;10.73;9.13;;;;;;;;;;5037183;28;20041;-76
2022/04/07 05:18:49;;;;;;;11.80;9.10;;;;;;;;;;5030592;28;20045;-73
2022/04/07 05:21:16;;;;;;;10.93;7.97;;;;;;;;;;5027496;28;20494;-75
2022/04/07 05:23:44;;;;;;;8.93;8.02;;;;;;;;;;5041291;28;20038;-73
2022/04/07 05:26:14;;;;;;;10.10;8.05;;;;;;;;;;5024058;28;20448;-73
2022/04/07 05:28:42;;;;;;;8.40;7.18;;;;;;;;;;5030597;28;20059;-73
2022/04/07 05:31:10;;;;;;;6.95;6.35;;;;;;;;;;5039695;28;20038;-75
2022/04/07 05:33:37;;;;;;;8.38;7.57;;;;;;;;;;5027704;28;20042;-75
2022/04/07 05:36:05;;;;;;;7.57;6.80;;;;;;;;;;5029761;28;20130;-75
2022/04/07 05:38:32;;;;;;;6.50;5.82;;;;;;;;;;5009621;28;20570;-74
2022/04/07 05:40:59;;;;;;;8.20;6.05;;;;;;;;;;5028861;28;20129;-75
2022/04/07 05:43:27;;;;;;;10.13;7.07;;;;;;;;;;5037172;28;20123;-75
2022/04/07 05:45:55;;;;;;;7.00;6.00;;;;;;;;;;5017824;28;20106;-75
2022/04/07 05:48:23;;;;;;;7.28;6.35;;;;;;;;;;5037101;28;20041;-73
2022/04/07 05:50:50;;;;;;;8.50;7.70;;;;;;;;;;5039331;28;20381;-75
2022/04/07 05:53:18;;;;;;;8.50;7.80;;;;;;;;;;5002156;28;20033;-74
2022/04/07 05:55:45;;;;;;;6.95;6.25;;;;;;;;;;5024233;28;20125;-72
2022/04/07 05:58:15;;;;;;;6.88;6.07;;;;;;;;;;5006787;28;20460;-74
2022/04/07 06:00:43;;;;;;;5.78;5.22;;;;;;;;;;5025370;28;20076;-73
2022/04/07 06:03:10;;;;;;;5.28;4.20;;;;;;;;;;5008986;28;20054;-75
2022/04/07 06:05:38;;;;;;;10.15;4.93;;;;;;;;;;5009936;28;20045;-75
2022/04/07 06:08:05;;;;;;;5.25;3.85;;;;;;;;;;5027529;28;20399;-75
2022/04/07 06:10:34;;;;;;;4.32;3.78;;;;;;;;;;5027172;28;20068;-74
2022/04/07 06:13:01;;;;;;;3.63;3.28;;;;;;;;;;5027508;28;20148;-74
2022/04/07 06:15:30;;;;;;;3.58;2.97;;;;;;;;;;5026686;28;20056;-73
2022/04/07 06:17:57;;;;;;;2.83;2.55;;;;;;;;;;5027563;28;20045;-73
2022/04/07 06:20:24;;;;;;;3.38;3.00;;;;;;;;;;5010071;28;20145;-72
2022/04/07 06:23:12;;;;;;;3.72;3.08;;;;;;;;;;4997068;28;20120;-75
2022/04/07 06:25:40;;;;;;;2.83;2.63;;;;;;;;;;5028363;28;20037;-75
2022/04/07 06:28:07;;;;;;;2.40;2.30;;;;;;;;;;5027372;28;20053;-72
2022/04/07 06:30:35;;;;;;;2.33;1.55;;;;;;;;;;4993292;28;20060;-75
2022/04/07 06:33:02;;;;;;;1.83;1.73;;;;;;;;;;5027299;28;20048;-74
2022/04/07 06:35:38;;;;;;;1.80;1.70;;;;;;;;;;5027340;28;20537;-74
2022/04/07 06:38:06;;;;;;;2.17;1.30;;;;;;;;;;5027491;28;20080;-72
2022/04/07 06:40:33;;;;;;;1.30;1.20;;;;;;;;;;5041122;23;20383;-80
2022/04/07 06:43:00;;;;;;;1.42;1.00;;;;;;;;;;5010083;28;20149;-80
2022/04/07 06:45:29;;;;;;;1.30;1.20;;;;;;;;;;5006907;28;20296;-81
2022/04/07 06:47:56;;;;;;;1.05;1.00;;;;;;;;;;5010052;28;20518;-81
2022/04/07 06:50:25;;;;;;;2.55;1.35;;;;;;;;;;5009782;28;20041;-81
2022/04/07 06:52:53;;;;;;;1.77;1.02;;;;;;;;;;4976842;28;20145;-81
2022/04/07 06:55:21;;;;;;;0.80;0.80;;;;;;;;;;5009152;28;20162;-81
2022/04/07 06:57:53;;;;;;;1.25;0.68;;;;;;;;;;5009291;28;20142;-81
2022/04/07 07:00:22;;;;;;;1.00;1.00;;;;;;;;;;5009457;28;20041;-81
2022/04/07 07:02:53;;;;;;;0.70;0.70;;;;;;;;;;5009631;28;20054;-79
2022/04/07 07:05:21;;;;;;;5.07;1.70;;;;;;;;;;5009635;28;20069;-81
2022/04/07 07:07:49;;;;;;;29.40;2.20;;;;;;;;;;5013419;28;20107;-81
2022/04/07 07:10:20;;;;;;;0.70;0.70;;;;;;;;;;5013361;28;20050;-81
2022/04/07 07:12:52;;;;;;;6.95;1.95;;;;;;;;;;4996122;28;20050;-80
2022/04/07 07:15:22;;;;;;;0.90;0.90;;;;;;;;;;5012785;28;20053;-81
2022/04/07 07:17:51;;;;;;;1.48;0.80;;;;;;;;;;5013404;28;20048;-80
2022/04/07 07:20:19;;;;;;;0.70;0.68;;;;;;;;;;5012538;28;20057;-81
2022/04/07 07:22:47;;;;;;;3.17;0.73;;;;;;;;;;4979705;28;20482;-81
2022/04/07 07:25:17;;;;;;;0.60;0.60;;;;;;;;;;4995885;28;20081;-83
2022/04/07 07:27:45;;;;;;;48.95;3.03;;;;;;;;;;4995667;28;20073;-81
2022/04/07 07:30:15;;;;;;;4.55;0.77;;;;;;;;;;5013162;28;20046;-80
2022/04/07 07:32:47;;;;;;;3.05;0.90;;;;;;;;;;5012390;28;20046;-86
2022/04/07 07:35:17;;;;;;;0.50;0.50;;;;;;;;;;5012530;28;20054;-82
2022/04/07 07:37:50;;;;;;;1.55;0.50;;;;;;;;;;5012879;28;20042;-81
2022/04/07 07:40:18;;;;;;;0.80;0.57;;;;;;;;;;4976095;28;20039;-82
2022/04/07 07:42:49;;;;;;;4.18;0.73;;;;;;;;;;4994486;28;20045;-82
2022/04/07 07:45:18;;;;;;;1.13;0.52;;;;;;;;;;5012436;28;20798;-82
2022/04/07 07:48:32;;;;;;;2.20;0.70;;;;;;;;;;4995701;28;20524;-82
2022/04/07 07:50:59;;;;;;;0.88;0.65;;;;;;;;;;4995592;28;20042;-82
2022/04/07 07:53:27;;;;;;;0.40;0.40;;;;;;;;;;4995409;28;20053;-82
2022/04/07 07:55:54;;;;;;;0.77;0.60;;;;;;;;;;4995562;28;20038;-80
2022/04/07 07:58:24;;;;;;;0.50;0.50;;;;;;;;;;4996337;28;20042;-78
2022/04/07 08:00:52;;;;;;;0.75;0.68;;;;;;;;;;5012265;28;20062;-80
2022/04/07 08:03:19;;;;;;;2.90;0.73;;;;;;;;;;5012295;28;20038;-81
2022/04/07 08:05:47;;;;;;;1.75;0.70;;;;;;;;;;5016185;28;20034;-80
2022/04/07 08:08:14;;;;;;;2.08;0.70;;;;;;;;;;5007587;28;20038;-80
2022/04/07 08:10:42;;;;;;;0.60;0.60;;;;;;;;;;4991530;28;20049;-81
2022/04/07 08:13:09;;;;;;;1.27;0.50;;;;;;;;;;4995133;28;20034;-83
2022/04/07 08:15:36;;;;;;;0.60;0.50;;;;;;;;;;4993507;28;20425;-80
2022/04/07 08:18:04;;;;;;;0.50;0.50;;;;;;;;;;5011677;28;20137;-82
2022/04/07 08:20:32;;;;;;;0.80;0.60;;;;;;;;;;5010965;28;20656;-80
2022/04/07 08:22:59;;;;;;;0.90;0.45;;;;;;;;;;5020464;28;20053;-81
2022/04/07 08:25:27;;;;;;;0.75;0.38;;;;;;;;;;5020245;28;20445;-81
2022/04/07 08:27:54;;;;;;;0.45;0.45;;;;;;;;;;5004463;28;20045;-81
2022/04/07 08:30:21;;;;;;;0.40;0.30;;;;;;;;;;5013916;28;20046;-81
2022/04/07 08:32:49;;;;;;;4.95;0.70;;;;;;;;;;4966337;28;20050;-81
2022/04/07 08:35:16;;;;;;;0.52;0.30;;;;;;;;;;5018680;28;20045;-85
2022/04/07 08:37:44;;;;;;;0.85;0.60;;;;;;;;;;5022897;28;20038;-81
2022/04/07 08:40:11;;;;;;;2.15;0.68;;;;;;;;;;5019026;28;20169;-79
2022/04/07 08:42:39;;;;;;;2.33;0.70;;;;;;;;;;5003759;28;20041;-83
2022/04/07 08:45:06;;;;;;;0.35;0.30;;;;;;;;;;5020848;28;20045;-82
2022/04/07 08:47:34;;;;;;;0.40;0.40;;;;;;;;;;5001727;28;20046;-82
2022/04/07 08:50:03;;;;;;;1.35;0.60;;;;;;;;;;5001648;28;20095;-81
2022/04/07 08:52:32;;;;;;;2.38;0.40;;;;;;;;;;5018475;28;20180;-83
2022/04/07 08:54:59;;;;;;;0.30;0.30;;;;;;;;;;5019324;28;20041;-82
2022/04/07 08:57:29;;;;;;;1.63;0.60;;;;;;;;;;4972561;28;20214;-83
2022/04/07 08:59:57;;;;;;;1.27;0.60;;;;;;;;;;4992832;28;20141;-81
2022/04/07 09:02:24;;;;;;;2.15;0.82;;;;;;;;;;5001528;28;20048;-83
2022/04/07 09:04:58;;;;;;;2.80;0.77;;;;;;;;;;4992483;28;20114;-83
2022/04/07 09:07:32;;;;;;;1.92;0.80;;;;;;;;;;4992123;28;20033;-82
2022/04/07 09:10:01;;;;;;;0.60;0.52;;;;;;;;;;4975076;28;20137;-77
2022/04/07 09:12:28;;;;;;;0.50;0.50;;;;;;;;;;5008837;28;20125;-81
2022/04/07 09:15:19;;;;;;;0.40;0.40;;;;;;;;;;4971637;28;20050;-80
2022/04/07 09:17:51;;;;;;;0.50;0.50;;;;;;;;;;5006610;28;20038;-81
2022/04/07 09:20:18;;;;;;;;;;;;;;;;;;5009870;28;20046;-82
2022/04/07 09:22:54;;;;;;;1.27;0.47;;;;;;;;;;4991684;28;19931;-80
2022/04/07 09:25:21;;;;;;;0.65;0.40;;;;;;;;;;4992079;28;20489;-81
2022/04/07 09:27:49;;;;;;;4.00;0.60;;;;;;;;;;5010012;28;20041;-81
2022/04/07 09:30:17;;;;;;;0.40;0.40;;;;;;;;;;4992288;28;20057;-80
2022/04/07 09:32:45;;;;;;;3.15;0.85;;;;;;;;;;5009875;28;20611;-81
2022/04/07 09:35:13;;;;;;;2.30;0.50;;;;;;;;;;5009909;28;20042;-82
2022/04/07 09:37:41;;;;;;;2.63;0.40;;;;;;;;;;5010332;28;20050;-82
2022/04/07 09:40:19;;;;;;;0.50;0.50;;;;;;;;;;4992694;28;20046;-82
2022/04/07 09:42:56;;;;;;;0.50;0.50;;;;;;;;;;4990273;28;20046;-81
2022/04/07 09:45:23;;;;;;;0.82;0.40;;;;;;;;;;4992381;28;20100;-81
2022/04/07 09:47:55;;;;;;;0.45;0.45;;;;;;;;;;4992601;28;20038;-84
2022/04/07 09:50:23;;;;;;;1.90;0.50;;;;;;;;;;5010193;28;20500;-80
2022/04/07 09:53:07;;;;;;;0.50;0.50;;;;;;;;;;5010145;28;20104;-82
2022/04/07 09:55:40;;;;;;;2.45;0.50;;;;;;;;;;4989105;28;20046;-82
2022/04/07 09:58:08;;;;;;;0.40;0.40;;;;;;;;;;4992720;28;20046;-78
2022/04/07 10:00:36;;;;;;;1.05;0.30;;;;;;;;;;5009984;28;20037;-82
2022/04/07 10:03:04;;;;;;;0.50;0.47;;;;;;;;;;4992575;28;20038;-83
2022/04/07 10:05:32;;;;;;;0.50;0.50;;;;;;;;;;5009813;28;20137;-81
2022/04/07 10:08:00;;;;;;;0.30;0.30;;;;;;;;;;4992641;28;20104;-81
2022/04/07 10:10:27;;;;;;;1.55;0.32;;;;;;;;;;5010300;28;20104;-82
2022/04/07 10:12:57;;;;;;;1.13;0.57;;;;;;;;;;5010712;28;20500;-81
2022/04/07 10:15:26;;;;;;;0.50;0.50;;;;;;;;;;4998665;23;20054;-75
2022/04/07 10:17:54;;;;;;;0.57;0.30;;;;;;;;;;4980879;28;20399;-78
2022/04/07 10:20:31;;;;;;;0.50;0.30;;;;;;;;;;4986878;28;20042;-76
2022/04/07 10:23:11;;;;;;;1.20;0.50;;;;;;;;;;4970587;28;20153;-78
2022/04/07 10:25:45;;;;;;;1.38;0.57;;;;;;;;;;4997263;28;20038;-76
2022/04/07 10:28:13;;;;;;;0.30;0.30;;;;;;;;;;4974298;28;20424;-77
2022/04/07 10:30:47;;;;;;;0.30;0.30;;;;;;;;;;5007405;28;20501;-78
2022/04/07 10:33:33;;;;;;;0.77;0.40;;;;;;;;;;4971116;28;20054;-77
2022/04/07 10:36:06;;;;;;;0.95;0.40;;;;;;;;;;5007493;28;20347;-77
2022/04/07 10:38:38;;;;;;;3.70;0.38;;;;;;;;;;4956653;28;20145;-80
2022/04/07 10:41:09;;;;;;;0.30;0.30;;;;;;;;;;4989421;28;20113;-75
2022/04/07 10:43:40;;;;;;;0.30;0.30;;;;;;;;;;5007585;28;20105;-79
2022/04/07 10:46:13;;;;;;;1.08;0.40;;;;;;;;;;5007230;28;20045;-79
2022/04/07 10:48:46;;;;;;;1.05;0.28;;;;;;;;;;5008534;28;20069;-77
2022/04/07 10:51:14;;;;;;;13.15;0.60;;;;;;;;;;4990053;28;20046;-76
2022/04/07 10:54:03;;;;;;;1.02;0.50;;;;;;;;;;5007054;28;20041;-80
2022/04/07 10:56:34;;;;;;;1.38;0.50;;;;;;;;;;4989218;28;20046;-77
2022/04/07 10:59:18;;;;;;;0.50;0.50;;;;;;;;;;4990410;28;20038;-78
2022/04/07 11:01:53;;;;;;;0.60;0.60;;;;;;;;;;4989236;28;20065;-78
2022/04/07 11:04:24;;;;;;;3.13;0.80;;;;;;;;;;4988611;28;20037;-78
2022/04/07 11:07:07;;;;;;;0.65;0.65;;;;;;;;;;5007696;28;20038;-76
2022/04/07 11:09:54;;;;;;;2.05;0.40;;;;;;;;;;5007073;28;20050;-77
2022/04/07 11:12:34;;;;;;;1.42;0.60;;;;;;;;;;5007194;28;20065;-78
2022/04/07 11:15:02;;;;;;;1.15;0.60;;;;;;;;;;4987855;28;20066;-80
2022/04/07 11:17:38;;;;;;;0.45;0.43;;;;;;;;;;5006954;28;20484;-78
2022/04/07 11:20:18;;;;;;;0.35;0.30;;;;;;;;;;5007398;28;20042;-78
2022/04/07 11:22:49;;;;;;;0.50;0.50;;;;;;;;;;4998472;28;20045;-77
2022/04/07 11:25:20;;;;;;;0.60;0.60;;;;;;;;;;4999223;28;20100;-78
2022/04/07 11:28:05;;;;;;;0.63;0.30;;;;;;;;;;4995640;28;20038;-77
2022/04/07 11:30:37;;;;;;;1.20;0.47;;;;;;;;;;4998460;28;20460;-77
2022/04/07 11:33:31;;;;;;;1.13;0.60;;;;;;;;;;4979481;28;20401;-76
2022/04/07 11:36:02;;;;;;;1.08;0.30;;;;;;;;;;4962574;28;20041;-76
2022/04/07 11:38:34;;;;;;;2.28;0.40;;;;;;;;;;4992482;28;20057;-77
2022/04/07 11:41:02;;;;;;;;;;;;;;;;;;5006422;28;20077;-79
2022/04/07 11:43:30;;;;;;;2.47;0.30;;;;;;;;;;5007707;28;19925;-78
2022/04/07 11:45:57;;;;;;;3.17;0.30;;;;;;;;;;4988297;28;20476;-78
2022/04/07 11:48:45;;;;;;;0.25;0.25;;;;;;;;;;4989737;28;20129;-78
2022/04/07 11:51:14;;;;;;;0.43;0.20;;;;;;;;;;5007014;28;20108;-80
2022/04/07 11:53:54;;;;;;;0.90;0.28;;;;;;;;;;4992920;28;20100;-79
2022/04/07 11:56:26;;;;;;;1.05;0.40;;;;;;;;;;4994684;28;20109;-78
2022/04/07 11:58:57;;;;;;;1.88;0.40;;;;;;;;;;5013250;28;20041;-78
2022/04/07 12:01:25;;;;;;;0.47;0.40;;;;;;;;;;5011510;28;20066;-80
2022/04/07 12:03:53;;;;;;;1.05;0.50;;;;;;;;;;4979158;28;20042;-77
2022/04/07 12:06:27;;;;;;;1.13;0.43;;;;;;;;;;4992127;28;20092;-77
2022/04/07 12:08:55;;;;;;;1.05;0.40;;;;;;;;;;5019103;28;20203;-77
2022/04/07 12:11:23;;;;;;;7.03;0.55;;;;;;;;;;4976532;28;20049;-78
2022/04/07 12:13:51;;;;;;;0.28;0.28;;;;;;;;;;5010131;28;20501;-77
2022/04/07 12:16:19;;;;;;;1.50;0.28;;;;;;;;;;5008392;28;20131;-78
2022/04/07 12:18:57;;;;;;;1.75;0.30;;;;;;;;;;5007662;28;20042;-78
2022/04/07 12:21:25;;;;;;;3.00;0.40;;;;;;;;;;5000496;28;20041;-77
2022/04/07 12:24:07;;;;;;;0.28;0.28;;;;;;;;;;4992263;28;20045;-79
2022/04/07 12:26:38;;;;;;;1.70;0.40;;;;;;;;;;4986345;28;20128;-77
2022/04/07 12:29:07;;;;;;;0.55;0.35;;;;;;;;;;5006526;28;20045;-77
2022/04/07 12:31:34;;;;;;;1.02;0.35;;;;;;;;;;4999120;28;20057;-77
2022/04/07 12:34:09;;;;;;;0.57;0.22;;;;;;;;;;5009891;28;20049;-78
2022/04/07 12:36:37;;;;;;;8.18;0.80;;;;;;;;;;4990946;28;20049;-77
2022/04/07 12:39:06;;;;;;;0.60;0.60;;;;;;;;;;4987296;28;20069;-77
2022/04/07 12:45:56;;;;;;;5.30;0.90;;;;;;;;;;4946347;29;20056;-80
2022/04/07 12:49:03;;;;;;;0.57;0.55;;;;;;;;;;4948691;28;20039;-82
2022/04/07 12:51:42;;;;;;;0.22;0.22;;;;;;;;;;4943642;28;20627;-81
2022/04/07 12:54:16;;;;;;;1.42;0.50;;;;;;;;;;4944175;28;20051;-81
2022/04/07 12:56:44;;;;;;;0.50;0.50;;;;;;;;;;4943763;28;20146;-80
2022/04/07 12:59:13;;;;;;;0.30;0.30;;;;;;;;;;4946320;28;20055;-82
2022/04/07 13:01:41;;;;;;;1.38;0.20;;;;;;;;;;4928975;29;20069;-88
2022/04/07 13:04:09;;;;;;;0.85;0.30;;;;;;;;;;4943321;28;20067;-81
2022/04/07 13:06:37;;;;;;;0.73;0.30;;;;;;;;;;4949820;28;20046;-82
2022/04/07 13:09:30;;;;;;;2.80;0.55;;;;;;;;;;4876006;29;20056;-81
2022/04/07 13:12:01;;;;;;;1.35;0.40;;;;;;;;;;4873627;29;20057;-81
2022/04/07 13:14:31;;;;;;;0.60;0.30;;;;;;;;;;4949856;28;20056;-83
2022/04/07 13:16:59;;;;;;;0.20;0.20;;;;;;;;;;5021525;28;20049;-80
2022/04/07 13:19:26;;;;;;;6.82;0.60;;;;;;;;;;4980892;28;20474;-80
2022/04/07 13:21:53;;;;;;;1.27;0.50;;;;;;;;;;5000539;28;21556;-80
2022/04/07 13:24:20;;;;;;;1.17;0.38;;;;;;;;;;5021037;28;20038;-80
2022/04/07 13:26:49;;;;;;;2.85;0.43;;;;;;;;;;5020156;28;20037;-78
2022/04/07 13:29:18;;;;;;;1.55;0.30;;;;;;;;;;5022631;28;20066;-80
2022/04/07 13:31:45;;;;;;;2.63;0.50;;;;;;;;;;5020344;28;20053;-79
2022/04/07 13:34:14;;;;;;;1.55;0.50;;;;;;;;;;5021297;28;20038;-83
2022/04/07 13:36:41;;;;;;;1.15;0.40;;;;;;;;;;5020385;28;20407;-81
2022/04/07 13:39:09;;;;;;;1.83;0.32;;;;;;;;;;5021036;28;20140;-81
2022/04/07 13:41:36;;;;;;;0.22;0.22;;;;;;;;;;5020454;28;20195;-80
2022/04/07 13:44:03;;;;;;;1.13;0.60;;;;;;;;;;5024557;28;20391;-78
2022/04/07 13:46:31;;;;;;;0.32;0.32;;;;;;;;;;5005477;28;20418;-81
2022/04/07 13:48:59;;;;;;;0.77;0.20;;;;;;;;;;4993866;28;20057;-81
2022/04/07 13:51:26;;;;;;;1.48;0.20;;;;;;;;;;5001461;28;20045;-79
2022/04/07 13:53:54;;;;;;;1.33;0.50;;;;;;;;;;5021317;28;20052;-80
2022/04/07 13:56:21;;;;;;;0.90;0.63;;;;;;;;;;5006425;28;20321;-79
2022/04/07 13:58:49;;;;;;;0.93;0.75;;;;;;;;;;5005668;28;20482;-79
2022/04/07 14:01:21;;;;;;;1.83;0.90;;;;;;;;;;5018411;28;20049;-81
2022/04/07 14:03:49;;;;;;;1.08;0.40;;;;;;;;;;5027265;28;20045;-80
2022/04/07 14:06:17;;;;;;;0.40;0.40;;;;;;;;;;5025395;28;20044;-80
2022/04/07 14:08:45;;;;;;;0.45;0.40;;;;;;;;;;5027262;28;20096;-81
2022/04/07 14:11:13;;;;;;;0.73;0.73;;;;;;;;;;5021088;28;20041;-81
2022/04/07 14:13:41;;;;;;;6.43;1.63;;;;;;;;;;5022033;28;20049;-79
2022/04/07 14:16:08;;;;;;;0.73;0.70;;;;;;;;;;5021481;28;20065;-80
2022/04/07 14:18:39;;;;;;;4.97;0.50;;;;;;;;;;5020136;28;20046;-80
2022/04/07 14:21:07;;;;;;;1.48;0.50;;;;;;;;;;4997068;28;20085;-79
2022/04/07 14:23:34;;;;;;;3.28;0.60;;;;;;;;;;5013451;28;20159;-81
2022/04/07 14:26:02;;;;;;;2.80;0.60;;;;;;;;;;5010658;28;20037;-83
2022/04/07 14:28:29;;;;;;;3.78;0.90;;;;;;;;;;4989536;28;20056;-80
2022/04/07 14:30:56;;;;;;;2.55;0.63;;;;;;;;;;5009734;28;20046;-80
2022/04/07 14:33:24;;;;;;;0.30;0.30;;;;;;;;;;4993002;28;20518;-80
2022/04/07 14:35:51;;;;;;;0.60;0.50;;;;;;;;;;5008579;28;20048;-80
2022/04/07 14:38:18;;;;;;;0.50;0.50;;;;;;;;;;5014676;28;20049;-79
2022/04/07 14:40:46;;;;;;;0.50;0.50;;;;;;;;;;4995200;28;20081;-79
2022/04/07 14:43:14;;;;;;;3.30;1.20;;;;;;;;;;5022026;28;20049;-81
2022/04/07 14:45:43;;;;;;;0.47;0.40;;;;;;;;;;5002577;28;20116;-80
2022/04/07 14:48:11;;;;;;;6.82;0.60;;;;;;;;;;5013500;28;20414;-80
2022/04/07 14:50:38;;;;;;;0.20;0.20;;;;;;;;;;5020379;28;20048;-80
2022/04/07 14:53:06;;;;;;;1.63;0.63;;;;;;;;;;5000278;28;20069;-81
2022/04/07 14:55:33;;;;;;;0.30;0.20;;;;;;;;;;5003781;28;20037;-81
2022/04/07 14:58:01;;;;;;;1.75;0.43;;;;;;;;;;5022366;28;20041;-81
2022/04/07 15:00:33;;;;;;;3.13;0.60;;;;;;;;;;5001469;28;20120;-80
2022/04/07 15:03:10;;;;;;;0.30;0.30;;;;;;;;;;5016793;28;20037;-80